createdAt,value
2023-03-26T00:01:29.886Z,100718.25
2023-03-26T00:03:58.125Z,100713.63
2023-03-26T00:06:36.864Z,100713.59
2023-03-26T00:09:06.347Z,100720.53
2023-03-26T00:11:34.573Z,100728.13
2023-03-26T00:14:02.823Z,100727.16
2023-03-26T00:16:32.187Z,100728.63
2023-03-26T00:19:01.434Z,100702.00
2023-03-26T00:21:30.563Z,100592.53
2023-03-26T00:24:04.462Z,100731.47
2023-03-26T00:26:34.026Z,100679.56
2023-03-26T00:29:03.515Z,100714.31
2023-03-26T00:31:31.332Z,100742.41
2023-03-26T00:33:59.645Z,100734.13
2023-03-26T00:36:27.118Z,100689.31
2023-03-26T00:38:55.304Z,100746.06
2023-03-26T00:41:31.212Z,100747.66
2023-03-26T00:44:00.964Z,100753.50
2023-03-26T00:46:30.842Z,100750.19
2023-03-26T00:49:03.893Z,100652.31
2023-03-26T00:51:31.754Z,100722.97
2023-03-26T00:53:59.001Z,100727.53
2023-03-26T00:56:26.586Z,100753.91
2023-03-26T00:58:53.839Z,100764.16
2023-03-26T01:01:29.373Z,100760.69
2023-03-26T01:04:07.346Z,100787.31
2023-03-26T01:06:36.886Z,100658.25
2023-03-26T01:09:18.909Z,100775.91
2023-03-26T01:11:48.967Z,100776.22
2023-03-26T01:14:26.996Z,100787.63
2023-03-26T01:16:59.479Z,100779.06
2023-03-26T01:19:40.161Z,100768.69
2023-03-26T01:22:27.153Z,100779.53
2023-03-26T01:24:56.731Z,100775.44
2023-03-26T01:27:43.430Z,100763.00
2023-03-26T01:30:19.649Z,100773.91
2023-03-26T01:33:22.233Z,100775.34
2023-03-26T01:36:10.797Z,100769.03
2023-03-26T01:39:00.543Z,100755.00
2023-03-26T01:42:10.475Z,100772.56
2023-03-26T01:44:48.805Z,100777.81
2023-03-26T01:47:17.896Z,100782.22
2023-03-26T01:49:45.223Z,100776.38
2023-03-26T01:52:16.673Z,100764.75
2023-03-26T01:54:46.787Z,100750.22
2023-03-26T01:57:33.774Z,100741.88
2023-03-26T02:00:13.821Z,100783.72
2023-03-26T02:03:17.775Z,100793.81
2023-03-26T02:06:03.855Z,100795.09
2023-03-26T02:08:39.632Z,100740.16
2023-03-26T02:11:11.863Z,100695.97
2023-03-26T02:13:44.162Z,100789.06
2023-03-26T02:16:14.764Z,100796.34
2023-03-26T02:18:43.620Z,100781.84
2023-03-26T02:21:14.521Z,100773.00
2023-03-26T02:23:47.159Z,100636.56
2023-03-26T02:26:20.410Z,100777.09
2023-03-26T02:29:05.037Z,100764.16
2023-03-26T02:31:33.875Z,100796.19
2023-03-26T02:34:01.333Z,100737.13
2023-03-26T02:36:30.565Z,100811.34
2023-03-26T02:39:01.214Z,100816.22
2023-03-26T02:41:31.807Z,100832.16
2023-03-26T02:44:06.466Z,100834.69
2023-03-26T02:46:56.872Z,100840.50
2023-03-26T02:49:47.328Z,100828.00
2023-03-26T02:52:22.474Z,100849.97
2023-03-26T02:54:51.757Z,100857.69
2023-03-26T02:57:24.487Z,100859.72
2023-03-26T03:00:17.524Z,100866.84
2023-03-26T03:03:05.166Z,100853.06
2023-03-26T03:05:33.830Z,100833.47
2023-03-26T03:08:20.742Z,100833.78
2023-03-26T03:11:14.786Z,100870.66
2023-03-26T03:13:49.288Z,100865.72
2023-03-26T03:16:20.572Z,100872.38
2023-03-26T03:18:54.676Z,100882.66
2023-03-26T03:21:25.071Z,100873.19
2023-03-26T03:23:52.229Z,100880.13
2023-03-26T03:26:22.648Z,100874.63
2023-03-26T03:29:15.156Z,100862.75
2023-03-26T03:31:46.599Z,100869.84
2023-03-26T03:34:28.495Z,100843.91
2023-03-26T03:36:56.105Z,100869.06
2023-03-26T03:39:32.614Z,100809.44
2023-03-26T03:41:59.778Z,100877.06
2023-03-26T03:44:27.264Z,100870.59
2023-03-26T03:46:56.164Z,100901.34
2023-03-26T03:49:23.794Z,100877.75
2023-03-26T03:51:51.189Z,100875.06
2023-03-26T03:54:26.212Z,100887.34
2023-03-26T03:57:10.643Z,100892.28
2023-03-26T04:00:06.896Z,100886.13
2023-03-26T04:02:43.265Z,100889.19
2023-03-26T04:05:12.113Z,100891.06
2023-03-26T04:07:45.656Z,100823.88
2023-03-26T04:10:35.649Z,100862.00
2023-03-26T04:13:03.027Z,100872.06
2023-03-26T04:15:53.206Z,100827.22
2023-03-26T04:18:22.451Z,100876.88
2023-03-26T04:20:50.898Z,100883.19
2023-03-26T04:23:26.740Z,100762.50
2023-03-26T04:26:10.651Z,100888.28
2023-03-26T04:29:00.034Z,100882.75
2023-03-26T04:31:30.826Z,100887.63
2023-03-26T04:34:06.872Z,100905.16
2023-03-26T04:36:42.541Z,100896.94
2023-03-26T04:39:13.334Z,100884.16
2023-03-26T04:42:00.727Z,100843.72
2023-03-26T04:44:35.104Z,100873.13
2023-03-26T04:47:07.280Z,100903.06
2023-03-26T04:49:43.193Z,100892.91
2023-03-26T04:52:12.557Z,100904.88
2023-03-26T04:54:58.624Z,100918.13
2023-03-26T04:57:43.772Z,100910.16
2023-03-26T05:00:20.435Z,100906.91
2023-03-26T05:02:56.295Z,100907.38
2023-03-26T05:05:25.577Z,100923.13
2023-03-26T05:07:54.521Z,100906.38
2023-03-26T05:10:22.560Z,100874.56
2023-03-26T05:13:11.098Z,100916.56
2023-03-26T05:15:41.203Z,100908.22
2023-03-26T05:18:12.245Z,100867.91
2023-03-26T05:20:46.770Z,100905.31
2023-03-26T05:23:14.028Z,100882.88
2023-03-26T05:25:49.857Z,100886.41
2023-03-26T05:28:23.582Z,100880.44
2023-03-26T05:30:57.485Z,100894.22
2023-03-26T05:33:27.379Z,100886.84
2023-03-26T05:36:13.475Z,100895.72
2023-03-26T05:38:49.674Z,100894.94
2023-03-26T05:41:46.084Z,100877.13
2023-03-26T05:44:13.284Z,100875.56
2023-03-26T05:46:40.497Z,100894.88
2023-03-26T05:49:08.332Z,100895.81
2023-03-26T05:51:36.297Z,100888.56
2023-03-26T05:54:29.381Z,100896.47
2023-03-26T05:57:08.516Z,100860.13
2023-03-26T05:59:55.877Z,100900.94
2023-03-26T06:02:42.992Z,100901.59
2023-03-26T06:05:27.117Z,100889.72
2023-03-26T06:08:17.437Z,100897.63
2023-03-26T06:10:51.108Z,100830.94
2023-03-26T06:13:19.141Z,100858.00
2023-03-26T06:15:49.934Z,100798.88
2023-03-26T06:18:26.797Z,100904.53
2023-03-26T06:21:20.015Z,100883.53
2023-03-26T06:24:07.819Z,100871.38
2023-03-26T06:26:53.749Z,100888.56
2023-03-26T06:29:32.819Z,100918.41
2023-03-26T06:32:26.964Z,100913.19
2023-03-26T06:35:15.306Z,100840.38
2023-03-26T06:37:45.855Z,100840.22
2023-03-26T06:40:15.486Z,100915.31
2023-03-26T06:43:10.594Z,100906.59
2023-03-26T06:45:59.167Z,100825.63
2023-03-26T06:48:40.526Z,100832.88
2023-03-26T06:51:32.280Z,100911.09
2023-03-26T06:54:09.507Z,100895.31
2023-03-26T06:56:56.163Z,100931.97
2023-03-26T06:59:42.445Z,100941.47
2023-03-26T07:02:31.762Z,100932.28
2023-03-26T07:05:18.687Z,100918.84
2023-03-26T07:08:14.273Z,100953.41
2023-03-26T07:11:08.843Z,100880.41
2023-03-26T07:14:06.762Z,100952.28
2023-03-26T07:16:52.255Z,100943.53
2023-03-26T07:19:50.619Z,100957.53
2023-03-26T07:22:22.918Z,100951.06
2023-03-26T07:25:10.327Z,100952.09
2023-03-26T07:28:39.614Z,100940.66
2023-03-26T07:31:25.227Z,100853.97
2023-03-26T07:34:27.769Z,100941.31
2023-03-26T07:37:29.100Z,100962.59
2023-03-26T07:40:39.150Z,100966.00
2023-03-26T07:43:50.112Z,100961.56
2023-03-26T07:46:35.038Z,100964.53
2023-03-26T07:49:29.653Z,100938.63
2023-03-26T07:52:07.549Z,100960.41
2023-03-26T07:55:16.248Z,100935.28
2023-03-26T07:58:45.645Z,100960.22
2023-03-26T08:02:00.482Z,100958.84
2023-03-26T08:05:11.650Z,100971.16
2023-03-26T08:08:29.718Z,100832.22
2023-03-26T08:11:30.334Z,100856.25
2023-03-26T08:14:23.370Z,100774.19
2023-03-26T08:17:12.225Z,100803.66
2023-03-26T08:20:11.610Z,100965.63
2023-03-26T08:22:45.354Z,100756.72
2023-03-26T08:25:21.099Z,100962.97
2023-03-26T08:28:23.777Z,100786.13
2023-03-26T08:30:56.115Z,100981.16
2023-03-26T08:33:28.110Z,100958.84
2023-03-26T08:35:59.092Z,100878.38
2023-03-26T08:38:29.578Z,100899.84
2023-03-26T08:41:24.358Z,100943.84
2023-03-26T08:44:23.272Z,100950.03
2023-03-26T08:47:26.496Z,100943.91
2023-03-26T08:50:38.299Z,100806.50
2023-03-26T08:53:32.176Z,100885.28
2023-03-26T08:56:14.366Z,100946.47
2023-03-26T08:59:11.627Z,100940.34
2023-03-26T09:01:39.971Z,100933.44
2023-03-26T09:04:08.428Z,100934.59
2023-03-26T09:06:40.187Z,100933.03
2023-03-26T09:09:45.772Z,100928.00
2023-03-26T09:12:26.330Z,100907.09
2023-03-26T09:15:28.914Z,100845.19
2023-03-26T09:18:35.161Z,100829.38
2023-03-26T09:21:51.338Z,100915.19
2023-03-26T09:24:54.948Z,100913.03
2023-03-26T09:27:36.629Z,100898.66
2023-03-26T09:30:30.757Z,100901.00
2023-03-26T09:33:29.937Z,100901.56
2023-03-26T09:36:35.995Z,100907.22
2023-03-26T09:39:20.091Z,100858.38
2023-03-26T09:42:17.743Z,100692.69
2023-03-26T09:45:13.213Z,100886.75
2023-03-26T09:48:10.675Z,100864.66
2023-03-26T09:50:55.342Z,100898.72
2023-03-26T09:53:54.219Z,100881.50
2023-03-26T09:56:49.847Z,100877.13
2023-03-26T09:59:29.729Z,100878.56
2023-03-26T10:02:22.724Z,100861.78
2023-03-26T10:05:20.996Z,100798.69
2023-03-26T10:08:22.056Z,100833.31
2023-03-26T10:11:01.458Z,100854.94
2023-03-26T10:13:42.732Z,100850.84
2023-03-26T10:16:27.881Z,100835.22
2023-03-26T10:19:15.283Z,100836.78
2023-03-26T10:21:49.461Z,100833.16
2023-03-26T10:24:29.285Z,100832.41
2023-03-26T10:27:25.256Z,100728.03
2023-03-26T10:30:24.322Z,100821.03
2023-03-26T10:33:29.952Z,100819.50
2023-03-26T10:35:57.912Z,100813.59
2023-03-26T10:38:45.327Z,100811.78
2023-03-26T10:41:22.999Z,100812.53
2023-03-26T10:44:18.564Z,100805.75
2023-03-26T10:47:09.135Z,100800.50
2023-03-26T10:49:42.954Z,100800.88
2023-03-26T10:52:21.093Z,100754.75
2023-03-26T10:55:32.156Z,100798.25
2023-03-26T10:58:02.577Z,100737.28
2023-03-26T11:00:31.832Z,100744.88
2023-03-26T11:03:27.710Z,100737.41
2023-03-26T11:06:03.397Z,100761.97
2023-03-26T11:08:55.970Z,100771.41
2023-03-26T11:11:32.659Z,100767.19
2023-03-26T11:14:08.180Z,100760.94
2023-03-26T11:16:55.327Z,100752.56
2023-03-26T11:19:42.240Z,100706.09
2023-03-26T11:22:43.176Z,100733.25
2023-03-26T11:25:34.321Z,100734.81
2023-03-26T11:28:20.767Z,100737.16
2023-03-26T11:30:55.143Z,100727.75
2023-03-26T11:33:32.892Z,100713.88
2023-03-26T11:36:08.474Z,100711.75
2023-03-26T11:38:43.820Z,100705.97
2023-03-26T11:41:23.675Z,100713.34
2023-03-26T11:44:09.591Z,100701.25
2023-03-26T11:46:43.303Z,100625.28
2023-03-26T11:49:14.945Z,100703.03
2023-03-26T11:51:47.613Z,100668.28
2023-03-26T11:54:17.514Z,100691.50
2023-03-26T11:57:07.151Z,100685.00
2023-03-26T11:59:53.730Z,100681.56
2023-03-26T12:02:34.616Z,100684.75
2023-03-26T12:05:19.260Z,100662.94
2023-03-26T12:07:51.961Z,100666.00
2023-03-26T12:10:38.531Z,100658.69
2023-03-26T12:13:47.985Z,100665.00
2023-03-26T12:16:18.886Z,100672.63
2023-03-26T12:19:00.221Z,100573.75
2023-03-26T12:21:30.326Z,100645.16
2023-03-26T12:24:05.515Z,100439.47
2023-03-26T12:26:45.409Z,100654.72
2023-03-26T12:29:17.414Z,100642.38
2023-03-26T12:32:03.958Z,100626.19
2023-03-26T12:34:38.110Z,100563.84
2023-03-26T12:37:08.177Z,100601.31
2023-03-26T12:40:08.146Z,100566.38
2023-03-26T12:44:47.435Z,100630.34
2023-03-26T12:45:29.419Z,100634.88
2023-03-26T12:48:04.257Z,100622.00
2023-03-26T12:51:03.824Z,100603.44
2023-03-26T12:53:43.640Z,100585.53
2023-03-26T12:56:27.590Z,100608.13
2023-03-26T12:59:23.922Z,100600.38
2023-03-26T13:02:04.651Z,100597.53
2023-03-26T13:05:05.631Z,100597.28
2023-03-26T13:07:52.787Z,100594.41
2023-03-26T13:10:50.252Z,100582.59
2023-03-26T13:13:41.913Z,100587.25
2023-03-26T13:16:29.675Z,100592.50
2023-03-26T13:19:28.288Z,100400.66
2023-03-26T13:22:22.310Z,100564.09
2023-03-26T13:25:22.683Z,100399.97
2023-03-26T13:28:02.784Z,100571.00
2023-03-26T13:30:37.166Z,100548.47
2023-03-26T13:33:12.627Z,100509.13
2023-03-26T13:35:50.465Z,100524.44
2023-03-26T13:38:58.940Z,100536.22
2023-03-26T13:41:59.842Z,100534.94
2023-03-26T13:44:43.248Z,100533.03
2023-03-26T13:47:19.471Z,100529.66
2023-03-26T13:50:04.217Z,100442.22
2023-03-26T13:52:31.870Z,100526.16
2023-03-26T13:55:21.304Z,100525.66
2023-03-26T13:57:58.216Z,100512.22
2023-03-26T14:00:49.486Z,100497.28
2023-03-26T14:03:56.950Z,100531.25
2023-03-26T14:06:44.255Z,100532.28
2023-03-26T14:09:28.271Z,100531.31
2023-03-26T14:12:24.378Z,100518.22
2023-03-26T14:15:02.405Z,100524.84
2023-03-26T14:17:58.132Z,100514.28
2023-03-26T14:21:05.632Z,100492.66
2023-03-26T14:23:36.372Z,100506.38
2023-03-26T14:26:25.380Z,100514.03
2023-03-26T14:29:10.028Z,100508.75
2023-03-26T14:31:58.908Z,100438.16
2023-03-26T14:34:55.304Z,100500.50
2023-03-26T14:37:39.916Z,100500.16
2023-03-26T14:40:29.002Z,100474.63
2023-03-26T14:43:15.885Z,100494.91
2023-03-26T14:46:08.697Z,100497.44
2023-03-26T14:48:59.151Z,100478.97
2023-03-26T14:52:00.886Z,100485.75
2023-03-26T14:54:32.148Z,100485.50
2023-03-26T14:57:23.923Z,100386.41
2023-03-26T15:00:08.840Z,100477.97
2023-03-26T15:03:02.542Z,100464.88
2023-03-26T15:05:52.747Z,100477.88
2023-03-26T15:08:54.278Z,100477.31
2023-03-26T15:11:46.855Z,100456.88
2023-03-26T15:14:52.325Z,100478.34
2023-03-26T15:17:49.363Z,100467.41
2023-03-26T15:20:46.195Z,100463.56
2023-03-26T15:23:33.326Z,100465.88
2023-03-26T15:26:27.745Z,100473.44
2023-03-26T15:29:14.498Z,100470.31
2023-03-26T15:32:04.842Z,100405.38
2023-03-26T15:35:07.771Z,100462.84
2023-03-26T15:37:49.793Z,100404.03
2023-03-26T15:40:32.373Z,100465.41
2023-03-26T15:43:06.133Z,100466.47
2023-03-26T15:45:49.468Z,100463.84
2023-03-26T15:48:38.048Z,100458.63
2023-03-26T15:51:24.298Z,100455.38
2023-03-26T15:54:20.929Z,100434.91
2023-03-26T15:57:03.934Z,100455.84
2023-03-26T16:00:01.478Z,100453.94
2023-03-26T16:02:39.162Z,100464.00
2023-03-26T16:05:38.639Z,100462.22
2023-03-26T16:08:39.784Z,100449.25
2023-03-26T16:11:12.992Z,100459.28
2023-03-26T16:13:52.322Z,100445.81
2023-03-26T16:16:26.171Z,100452.28
2023-03-26T16:19:20.263Z,100445.09
2023-03-26T16:21:56.600Z,100447.50
2023-03-26T16:24:32.133Z,100397.22
2023-03-26T16:27:15.839Z,100441.97
2023-03-26T16:30:14.093Z,100379.69
2023-03-26T16:32:48.869Z,100443.50
2023-03-26T16:35:18.073Z,100448.72
2023-03-26T16:37:50.845Z,100451.06
2023-03-26T16:40:18.752Z,100449.50
2023-03-26T16:42:52.295Z,100447.81
2023-03-26T16:45:49.108Z,100447.75
2023-03-26T16:48:48.751Z,100443.91
2023-03-26T16:52:08.628Z,100431.06
2023-03-26T16:54:39.701Z,100444.50
2023-03-26T16:57:30.564Z,100452.91
2023-03-26T17:00:16.685Z,100445.13
2023-03-26T17:03:09.184Z,100441.22
2023-03-26T17:05:58.873Z,100428.44
2023-03-26T17:08:48.031Z,100438.41
2023-03-26T17:11:53.469Z,100436.34
2023-03-26T17:15:06.538Z,100441.63
2023-03-26T17:17:51.431Z,100433.38
2023-03-26T17:20:42.084Z,100396.00
2023-03-26T17:23:28.920Z,100429.59
2023-03-26T17:26:04.527Z,100427.78
2023-03-26T17:28:45.295Z,100435.69
2023-03-26T17:31:26.667Z,100425.56
2023-03-26T17:33:55.970Z,100426.69
2023-03-26T17:36:40.181Z,100426.75
2023-03-26T17:39:42.486Z,100424.97
2023-03-26T17:42:19.050Z,100428.91
2023-03-26T17:44:53.411Z,100421.38
2023-03-26T17:47:39.892Z,100426.63
2023-03-26T17:50:23.698Z,100426.13
2023-03-26T17:53:00.801Z,100420.94
2023-03-26T17:55:32.565Z,100438.31
2023-03-26T17:58:04.326Z,100347.47
2023-03-26T18:00:36.060Z,100381.59
2023-03-26T18:03:16.653Z,100424.84
2023-03-26T18:05:47.433Z,100428.03
2023-03-26T18:08:35.241Z,100421.78
2023-03-26T18:11:08.733Z,100415.84
2023-03-26T18:13:50.539Z,100423.72
2023-03-26T18:16:29.456Z,100420.63
2023-03-26T18:19:03.960Z,100414.59
2023-03-26T18:21:40.162Z,100428.94
2023-03-26T18:24:15.379Z,100319.06
2023-03-26T18:26:47.052Z,100429.00
2023-03-26T18:29:28.499Z,100430.88
2023-03-26T18:32:05.204Z,100203.25
2023-03-26T18:34:38.876Z,100340.75
2023-03-26T18:37:23.901Z,100425.19
2023-03-26T18:40:02.942Z,100417.09
2023-03-26T18:42:33.153Z,100387.16
2023-03-26T18:45:07.349Z,100413.22
2023-03-26T18:47:38.921Z,100422.34
2023-03-26T18:50:08.615Z,100427.34
2023-03-26T18:52:37.734Z,100400.47
2023-03-26T18:55:06.273Z,100418.47
2023-03-26T18:57:35.060Z,100342.34
2023-03-26T19:00:21.999Z,100394.75
2023-03-26T19:03:05.278Z,100401.78
2023-03-26T19:05:35.936Z,100406.16
2023-03-26T19:08:08.289Z,100412.66
2023-03-26T19:10:38.533Z,100402.50
2023-03-26T19:13:06.813Z,100391.78
2023-03-26T19:15:36.745Z,100403.00
2023-03-26T19:18:10.004Z,100391.75
2023-03-26T19:20:59.172Z,100402.94
2023-03-26T19:23:32.596Z,100387.53
2023-03-26T19:26:04.612Z,100398.47
2023-03-26T19:28:36.964Z,100373.66
2023-03-26T19:31:27.055Z,100388.47
2023-03-26T19:33:59.288Z,100381.69
2023-03-26T19:36:32.824Z,100381.13
2023-03-26T19:39:02.800Z,100371.44
2023-03-26T19:41:35.869Z,100372.97
2023-03-26T19:44:16.344Z,100362.56
2023-03-26T19:46:53.539Z,100364.91
2023-03-26T19:49:47.800Z,100352.66
2023-03-26T19:52:19.678Z,100331.97
2023-03-26T19:54:59.459Z,100363.00
2023-03-26T19:57:32.138Z,100354.28
2023-03-26T20:00:01.137Z,100358.09
2023-03-26T20:02:30.482Z,100353.91
2023-03-26T20:04:58.031Z,100356.97
2023-03-26T20:07:35.437Z,100350.28
2023-03-26T20:10:05.912Z,100365.38
2023-03-26T20:12:33.861Z,100330.06
2023-03-26T20:15:02.244Z,100360.84
2023-03-26T20:17:31.858Z,100354.06
2023-03-26T20:19:59.941Z,100347.06
2023-03-26T20:22:31.494Z,100322.19
2023-03-26T20:25:01.562Z,100292.16
2023-03-26T20:27:30.565Z,100311.34
2023-03-26T20:29:59.521Z,100310.59
2023-03-26T20:32:28.686Z,100301.06
2023-03-26T20:34:57.964Z,100301.66
2023-03-26T20:37:27.987Z,100297.50
2023-03-26T20:40:02.175Z,100287.63
2023-03-26T20:42:33.779Z,100283.53
2023-03-26T20:45:02.161Z,100279.44
2023-03-26T20:47:31.241Z,100268.97
2023-03-26T20:49:59.042Z,100269.03
2023-03-26T20:52:28.747Z,100267.16
2023-03-26T20:54:59.264Z,100265.34
2023-03-26T20:57:29.083Z,100197.72
2023-03-26T20:59:56.314Z,100247.09
2023-03-26T21:02:26.136Z,100258.31
2023-03-26T21:04:54.506Z,100211.69
2023-03-26T21:07:22.092Z,100179.59
2023-03-26T21:09:50.188Z,100233.28
2023-03-26T21:12:26.724Z,100232.00
2023-03-26T21:14:56.602Z,100220.59
2023-03-26T21:17:24.542Z,100225.31
2023-03-26T21:19:54.444Z,100149.69
2023-03-26T21:22:33.767Z,100213.56
2023-03-26T21:25:22.869Z,100208.19
2023-03-26T21:28:17.398Z,100211.56
2023-03-26T21:30:44.971Z,100179.31
2023-03-26T21:33:12.079Z,100171.03
2023-03-26T21:35:39.699Z,100189.84
2023-03-26T21:38:09.470Z,100171.06
2023-03-26T21:40:39.012Z,100170.50
2023-03-26T21:43:11.855Z,100189.50
2023-03-26T21:45:39.742Z,100184.03
2023-03-26T21:48:07.303Z,100169.97
2023-03-26T21:50:35.031Z,100181.59
2023-03-26T21:53:02.467Z,100173.91
2023-03-26T21:55:36.879Z,100154.25
2023-03-26T21:58:07.476Z,100174.94
2023-03-26T22:01:00.983Z,100162.31
2023-03-26T22:03:51.083Z,100149.78
2023-03-26T22:06:42.808Z,100152.00
2023-03-26T22:09:12.811Z,100161.44
2023-03-26T22:11:42.198Z,100166.38
2023-03-26T22:14:09.638Z,100165.03
2023-03-26T22:16:36.799Z,100164.75
2023-03-26T22:19:03.940Z,100129.72
2023-03-26T22:21:31.173Z,100119.88
2023-03-26T22:23:58.424Z,100129.47
2023-03-26T22:26:26.173Z,100096.41
2023-03-26T22:28:53.619Z,100035.16
2023-03-26T22:31:20.813Z,100121.19
2023-03-26T22:33:48.522Z,100071.16
2023-03-26T22:36:22.617Z,100129.75
2023-03-26T22:38:53.984Z,100108.34
2023-03-26T22:41:22.377Z,100128.63
2023-03-26T22:43:52.190Z,100131.97
2023-03-26T22:46:20.145Z,100137.59
2023-03-26T22:48:48.458Z,100094.06
2023-03-26T22:51:16.249Z,100121.94
2023-03-26T22:53:44.132Z,100098.31
2023-03-26T22:56:14.428Z,100104.97
2023-03-26T22:58:42.363Z,100107.84
2023-03-26T23:01:19.295Z,100094.25
2023-03-26T23:03:46.735Z,100100.91
2023-03-26T23:06:14.186Z,100065.69
2023-03-26T23:08:41.864Z,100097.00
2023-03-26T23:11:10.116Z,100079.91
2023-03-26T23:13:37.284Z,100056.84
2023-03-26T23:16:05.155Z,100025.84
2023-03-26T23:18:32.405Z,100048.28
2023-03-26T23:20:59.547Z,100031.09
2023-03-26T23:23:29.353Z,100062.94
2023-03-26T23:26:07.045Z,100054.44
2023-03-26T23:28:35.539Z,100047.75
2023-03-26T23:31:05.979Z,100050.31
2023-03-26T23:33:35.897Z,100023.44
2023-03-26T23:36:09.061Z,100028.47
2023-03-26T23:38:44.040Z,100030.41
2023-03-26T23:41:15.871Z,99993.38
2023-03-26T23:43:54.610Z,100031.97
2023-03-26T23:46:31.007Z,100006.75
2023-03-26T23:49:00.198Z,100022.31
2023-03-26T23:51:27.511Z,100020.72
2023-03-26T23:53:54.733Z,99988.66
2023-03-26T23:56:22.017Z,100001.22
2023-03-26T23:58:49.289Z,99973.59
